GOOK

Kaolack Airport

Kaolack, Senegal
METAR GOOK 221700Z 04008KT CAVOK 40/26 Q1010
Observed Flight Rules
May-22 @ 17:00 UTC (47 minutes ago) Visual Flight Rules
Wind Visibility Clouds
40° at 8 knots 10,000+ meters
  • Clear skies
Temperatures Readings
Current 40°C / 104°F
Dewpoint 26°C / 79°F
Humidity 45%
Altimeter 29.82" Hg
Pressure 1010 hPa
Elevation 7
METAR GOOK 221700Z 04008KT CAVOK 40/26 Q1010
Observed Flight Rules
May-22 @ 17:00 UTC
(47 minutes ago)
VFR
Wind Visibility
40° at 8 knots 10,000+ meters
Clouds
  • Clear skies
Temperature Dewpoint
40°C / 104°F 26°C / 79°F
Humidity Altimeter Pressure
45% 29.82" Hg 1010 hPa